createdAt,value
2018-12-02T00:00:54.871Z,7.81
2018-12-02T00:04:00.236Z,7.95
2018-12-02T00:07:05.668Z,8.02
2018-12-02T00:10:13.677Z,7.97
2018-12-02T00:13:19.047Z,8.01
2018-12-02T00:16:24.384Z,7.95
2018-12-02T00:19:29.744Z,8.03
2018-12-02T00:22:35.163Z,8.00
2018-12-02T00:25:40.573Z,7.97
2018-12-02T00:28:45.948Z,8.00
2018-12-02T00:31:51.464Z,7.93
2018-12-02T00:34:56.851Z,7.93
2018-12-02T00:38:03.484Z,8.04
2018-12-02T00:41:08.908Z,8.05
2018-12-02T00:44:14.510Z,7.95
2018-12-02T00:47:19.845Z,7.82
2018-12-02T00:50:25.591Z,7.67
2018-12-02T00:53:30.940Z,7.75
2018-12-02T00:56:36.309Z,7.60
2018-12-02T00:59:41.696Z,7.56
2018-12-02T01:02:48.413Z,7.64
2018-12-02T01:05:53.788Z,7.58
2018-12-02T01:08:59.223Z,7.59
2018-12-02T01:12:04.782Z,7.83
2018-12-02T01:15:17.978Z,7.81
2018-12-02T01:18:23.345Z,7.73
2018-12-02T01:21:28.821Z,7.77
2018-12-02T01:24:34.200Z,7.72
2018-12-02T01:27:39.932Z,7.82
2018-12-02T01:30:45.390Z,7.88
2018-12-02T01:33:51.409Z,7.95
2018-12-02T01:36:57.257Z,7.92
2018-12-02T01:40:02.721Z,7.91
2018-12-02T01:43:20.030Z,7.93
2018-12-02T01:46:25.512Z,7.97
2018-12-02T01:49:31.688Z,8.13
2018-12-02T01:52:37.142Z,8.12
2018-12-02T01:55:43.236Z,8.16
2018-12-02T01:58:48.600Z,8.05
2018-12-02T02:01:53.992Z,8.21
2018-12-02T02:04:59.524Z,8.12
2018-12-02T02:08:05.528Z,8.21
2018-12-02T02:11:10.936Z,8.14
2018-12-02T02:14:16.353Z,8.13
2018-12-02T02:17:21.716Z,7.98
2018-12-02T02:20:27.456Z,7.91
2018-12-02T02:23:32.826Z,8.07
2018-12-02T02:26:38.267Z,8.01
2018-12-02T02:29:43.700Z,7.93
2018-12-02T02:32:49.559Z,7.95
2018-12-02T02:35:54.908Z,7.80
2018-12-02T02:39:00.269Z,7.96
2018-12-02T02:42:06.488Z,8.15
2018-12-02T02:45:13.089Z,8.06
2018-12-02T02:48:18.465Z,8.09
2018-12-02T02:51:24.036Z,7.94
2018-12-02T02:54:29.440Z,7.85
2018-12-02T02:57:34.912Z,7.92
2018-12-02T03:00:40.769Z,7.85
2018-12-02T03:03:46.213Z,8.07
2018-12-02T03:06:51.661Z,8.02
2018-12-02T03:09:57.093Z,8.06
2018-12-02T03:13:02.559Z,7.90
2018-12-02T03:16:08.302Z,7.93
2018-12-02T03:19:13.676Z,8.03
2018-12-02T03:22:19.332Z,8.11
2018-12-02T03:25:26.635Z,8.02
2018-12-02T03:28:32.063Z,8.15
2018-12-02T03:31:37.629Z,8.26
2018-12-02T03:34:42.965Z,8.19
2018-12-02T03:37:49.058Z,8.11
2018-12-02T03:40:54.461Z,8.16
2018-12-02T03:43:59.913Z,8.30
2018-12-02T03:47:05.428Z,8.27
2018-12-02T03:50:17.816Z,8.28
2018-12-02T03:53:21.005Z,8.18
2018-12-02T03:56:26.425Z,8.26
2018-12-02T03:59:31.876Z,8.31
2018-12-02T04:02:37.420Z,8.31
2018-12-02T04:05:42.740Z,8.38
2018-12-02T04:08:48.103Z,8.24
2018-12-02T04:11:53.695Z,8.43
2018-12-02T04:14:59.104Z,8.49
2018-12-02T04:18:04.818Z,8.55
2018-12-02T04:21:10.348Z,8.61
2018-12-02T04:24:15.773Z,8.56
2018-12-02T04:27:21.212Z,8.58
2018-12-02T04:30:26.772Z,8.54
2018-12-02T04:33:32.221Z,8.71
2018-12-02T04:36:37.660Z,8.78
2018-12-02T04:39:43.219Z,8.80
2018-12-02T04:42:48.656Z,8.88
2018-12-02T04:45:54.113Z,8.95
2018-12-02T04:48:59.972Z,8.95
2018-12-02T04:52:05.709Z,8.93
2018-12-02T04:55:11.828Z,9.00
2018-12-02T04:58:17.252Z,8.97
2018-12-02T05:01:22.792Z,9.01
2018-12-02T05:04:28.241Z,9.03
2018-12-02T05:07:33.763Z,9.09
2018-12-02T05:10:39.153Z,8.93
2018-12-02T05:13:44.510Z,9.00
2018-12-02T05:16:49.928Z,8.91
2018-12-02T05:19:55.377Z,9.06
2018-12-02T05:23:00.913Z,9.06
2018-12-02T05:26:06.823Z,8.94
2018-12-02T05:29:12.272Z,8.86
2018-12-02T05:32:17.764Z,8.84
2018-12-02T05:35:23.233Z,8.85
2018-12-02T05:38:28.552Z,8.78
2018-12-02T05:41:39.263Z,8.85
2018-12-02T05:44:44.714Z,8.76
2018-12-02T05:47:50.185Z,8.88
2018-12-02T05:50:55.696Z,9.04
2018-12-02T05:54:01.315Z,9.04
2018-12-02T05:57:07.017Z,9.15
2018-12-02T06:00:14.923Z,8.93
2018-12-02T06:03:20.444Z,8.89
2018-12-02T06:06:25.828Z,8.88
2018-12-02T06:09:31.243Z,9.07
2018-12-02T06:12:36.907Z,8.92
2018-12-02T06:15:42.302Z,9.04
2018-12-02T06:18:47.808Z,9.01
2018-12-02T06:21:53.156Z,9.02
2018-12-02T06:24:58.532Z,8.96
2018-12-02T06:28:04.228Z,8.98
2018-12-02T06:31:09.732Z,9.00
2018-12-02T06:34:15.132Z,8.91
2018-12-02T06:37:20.521Z,9.01
2018-12-02T06:40:28.413Z,8.99
2018-12-02T06:43:33.740Z,9.17
2018-12-02T06:46:39.105Z,9.24
2018-12-02T06:49:44.528Z,9.18
2018-12-02T06:52:50.003Z,9.21
2018-12-02T06:56:02.299Z,9.11
2018-12-02T06:59:49.508Z,9.13
2018-12-02T07:03:07.600Z,9.00
2018-12-02T07:06:12.985Z,8.86
2018-12-02T07:09:18.904Z,8.45
2018-12-02T07:12:23.827Z,8.64
2018-12-02T07:15:29.255Z,8.52
2018-12-02T07:18:36.466Z,8.31
2018-12-02T07:21:42.051Z,8.29
2018-12-02T07:24:47.399Z,8.29
2018-12-02T07:27:52.816Z,8.35
2018-12-02T07:30:58.425Z,8.40
2018-12-02T07:34:03.816Z,8.51
2018-12-02T07:37:19.699Z,8.30
2018-12-02T07:40:30.427Z,8.22
2018-12-02T07:43:35.787Z,8.17
2018-12-02T07:46:41.168Z,8.15
2018-12-02T07:49:46.560Z,8.22
2018-12-02T07:52:52.081Z,8.05
2018-12-02T07:55:57.508Z,8.08
2018-12-02T07:59:02.900Z,8.12
2018-12-02T08:02:09.057Z,8.26
2018-12-02T08:05:16.627Z,8.24
2018-12-02T08:08:22.280Z,8.27
2018-12-02T08:11:27.927Z,8.23
2018-12-02T08:14:33.294Z,8.36
2018-12-02T08:17:39.115Z,8.37
2018-12-02T08:20:44.624Z,8.07
2018-12-02T08:23:50.035Z,8.22
2018-12-02T08:26:55.355Z,8.24
2018-12-02T08:30:00.733Z,8.16
2018-12-02T08:33:06.277Z,8.13
2018-12-02T08:36:11.624Z,8.27
2018-12-02T08:39:17.085Z,8.05
2018-12-02T08:42:22.600Z,8.15
2018-12-02T08:45:28.376Z,8.13
2018-12-02T08:48:33.825Z,8.09
2018-12-02T08:51:39.560Z,8.20
2018-12-02T08:54:44.928Z,8.24
2018-12-02T08:57:52.432Z,8.30
2018-12-02T09:00:57.997Z,8.38
2018-12-02T09:04:03.403Z,8.42
2018-12-02T09:07:08.763Z,8.30
2018-12-02T09:10:16.439Z,8.47
2018-12-02T09:13:21.895Z,8.30
2018-12-02T09:16:27.237Z,8.21
2018-12-02T09:19:32.555Z,8.21
2018-12-02T09:22:38.280Z,8.36
2018-12-02T09:25:43.735Z,8.43
2018-12-02T09:28:49.147Z,8.44
2018-12-02T09:31:54.527Z,8.56
2018-12-02T09:34:59.975Z,8.58
2018-12-02T09:38:06.053Z,8.66
2018-12-02T09:41:11.597Z,8.36
2018-12-02T09:44:17.004Z,8.47
2018-12-02T09:47:22.364Z,8.50
2018-12-02T09:50:27.848Z,8.53
2018-12-02T09:53:33.252Z,8.65
2018-12-02T09:56:38.642Z,8.67
2018-12-02T09:59:44.139Z,8.80
2018-12-02T10:02:49.926Z,8.76
2018-12-02T10:05:55.686Z,8.60
2018-12-02T10:09:01.016Z,8.64
2018-12-02T10:12:06.707Z,8.48
2018-12-02T10:15:13.940Z,8.66
2018-12-02T10:18:19.307Z,8.61
2018-12-02T10:21:25.578Z,8.70
2018-12-02T10:24:31.020Z,8.60
2018-12-02T10:27:36.376Z,8.65
2018-12-02T10:30:42.659Z,8.62
2018-12-02T10:33:47.995Z,8.51
2018-12-02T10:36:53.483Z,8.71
2018-12-02T10:39:59.467Z,8.72
2018-12-02T10:43:04.874Z,8.85
2018-12-02T10:46:10.214Z,8.78
2018-12-02T10:49:15.596Z,8.89
2018-12-02T10:52:21.082Z,8.84
2018-12-02T10:55:43.876Z,8.82
2018-12-02T10:58:49.183Z,8.88
2018-12-02T11:01:58.719Z,8.74
2018-12-02T11:05:04.191Z,8.71
2018-12-02T11:08:09.540Z,8.76
2018-12-02T11:14:44.563Z,8.71
2018-12-02T11:17:49.930Z,8.81
2018-12-02T11:20:55.320Z,8.83
2018-12-02T11:24:01.895Z,8.86
2018-12-02T11:27:07.972Z,8.80
2018-12-02T11:30:16.243Z,8.87
2018-12-02T11:33:21.708Z,8.85
2018-12-02T11:36:27.055Z,8.90
2018-12-02T11:39:32.462Z,8.67
2018-12-02T11:42:37.867Z,8.72
2018-12-02T11:45:43.227Z,8.82
2018-12-02T11:48:48.576Z,8.88
2018-12-02T11:51:53.980Z,8.68
2018-12-02T11:54:59.430Z,8.91
2018-12-02T11:58:05.096Z,9.04
2018-12-02T12:01:10.536Z,9.06
2018-12-02T12:04:15.887Z,8.97
2018-12-02T12:07:21.229Z,9.04
2018-12-02T12:10:28.767Z,8.91
2018-12-02T12:13:34.285Z,9.02
2018-12-02T12:16:39.707Z,9.20
2018-12-02T12:19:47.200Z,9.04
2018-12-02T12:22:52.784Z,8.86
2018-12-02T12:25:58.127Z,8.70
2018-12-02T12:29:03.572Z,8.70
2018-12-02T12:32:09.128Z,8.83
2018-12-02T12:35:16.386Z,8.81
2018-12-02T12:38:22.397Z,8.86
2018-12-02T12:41:27.083Z,8.88
2018-12-02T12:44:32.437Z,8.99
2018-12-02T12:47:38.620Z,9.10
2018-12-02T12:50:44.076Z,9.25
2018-12-02T12:53:49.500Z,9.30
2018-12-02T12:56:54.943Z,9.29
2018-12-02T13:00:00.940Z,9.24
2018-12-02T13:03:07.171Z,9.15
2018-12-02T13:06:12.491Z,9.21
2018-12-02T13:09:17.864Z,9.20
2018-12-02T13:12:23.308Z,9.26
2018-12-02T13:15:28.871Z,9.31
2018-12-02T13:18:34.350Z,9.23
2018-12-02T13:21:39.698Z,9.26
2018-12-02T13:24:45.108Z,9.19
2018-12-02T13:27:50.667Z,9.07
2018-12-02T13:30:56.042Z,9.17
2018-12-02T13:34:01.576Z,9.36
2018-12-02T13:37:07.121Z,9.40
2018-12-02T13:40:15.943Z,9.43
2018-12-02T13:43:24.009Z,9.37
2018-12-02T13:46:29.381Z,9.39
2018-12-02T13:49:34.853Z,9.34
2018-12-02T13:52:40.308Z,9.50
2018-12-02T13:55:46.872Z,9.52
2018-12-02T13:58:53.081Z,9.50
2018-12-02T14:01:59.228Z,9.66
2018-12-02T14:05:05.260Z,9.50
2018-12-02T14:08:11.920Z,9.45
2018-12-02T14:11:17.700Z,9.57
2018-12-02T14:14:23.352Z,9.70
2018-12-02T14:17:31.161Z,9.83
2018-12-02T14:20:36.980Z,9.89
2018-12-02T14:23:44.196Z,10.03
2018-12-02T14:26:50.417Z,10.13
2018-12-02T14:29:57.535Z,10.24
2018-12-02T14:33:03.013Z,10.26
2018-12-02T14:36:08.467Z,10.26
2018-12-02T14:39:14.658Z,10.38
2018-12-02T14:42:20.241Z,10.44
2018-12-02T14:45:25.656Z,10.51
2018-12-02T14:48:31.040Z,10.53
2018-12-02T14:51:36.681Z,10.61
2018-12-02T14:54:42.160Z,10.60
2018-12-02T14:57:47.663Z,10.67
2018-12-02T15:00:53.076Z,10.72
2018-12-02T15:03:59.285Z,10.84
2018-12-02T15:07:05.227Z,10.84
2018-12-02T15:10:16.569Z,10.86
2018-12-02T15:13:21.930Z,10.90
2018-12-02T15:16:27.309Z,10.91
2018-12-02T15:19:32.719Z,10.96
2018-12-02T15:22:38.482Z,11.01
2018-12-02T15:25:44.048Z,11.06
2018-12-02T15:28:49.588Z,11.07
2018-12-02T15:31:55.226Z,11.05
2018-12-02T15:35:00.669Z,11.09
2018-12-02T15:38:06.851Z,11.12
2018-12-02T15:41:12.297Z,11.08
2018-12-02T15:44:17.808Z,11.12
2018-12-02T15:47:23.197Z,11.17
2018-12-02T15:50:28.655Z,11.20
2018-12-02T15:53:34.117Z,11.29
2018-12-02T15:56:39.546Z,11.34
2018-12-02T15:59:44.860Z,11.33
2018-12-02T16:02:50.447Z,11.37
2018-12-02T16:05:56.550Z,11.37
2018-12-02T16:09:01.885Z,11.38
2018-12-02T16:12:08.021Z,11.37
2018-12-02T16:15:15.939Z,11.49
2018-12-02T16:18:21.401Z,11.42
2018-12-02T16:21:26.840Z,11.48
2018-12-02T16:24:32.209Z,11.54
2018-12-02T16:27:37.640Z,11.51
2018-12-02T16:30:43.268Z,11.56
2018-12-02T16:33:48.748Z,11.56
2018-12-02T16:36:54.168Z,11.50
2018-12-02T16:39:59.601Z,11.55
2018-12-02T16:43:05.539Z,11.58
2018-12-02T16:46:10.900Z,11.57
2018-12-02T16:49:16.387Z,11.62
2018-12-02T16:52:21.844Z,11.64
2018-12-02T16:55:30.884Z,11.71
2018-12-02T16:58:44.807Z,11.69
2018-12-02T17:01:54.657Z,11.68
2018-12-02T17:05:00.104Z,11.70
2018-12-02T17:08:05.879Z,11.72
2018-12-02T17:11:11.335Z,11.77
2018-12-02T17:14:16.760Z,11.75
2018-12-02T17:17:22.231Z,11.78
2018-12-02T17:20:27.637Z,11.77
2018-12-02T17:23:33.109Z,11.83
2018-12-02T17:26:38.731Z,11.80
2018-12-02T17:29:44.495Z,11.86
2018-12-02T17:32:49.963Z,11.89
2018-12-02T17:35:55.408Z,11.88
2018-12-02T17:39:09.065Z,11.88
2018-12-02T17:42:14.916Z,11.87
2018-12-02T17:45:20.956Z,11.91
2018-12-02T17:48:26.485Z,11.93
2018-12-02T17:51:31.953Z,11.90
2018-12-02T17:54:37.448Z,11.93
2018-12-02T17:57:42.845Z,11.88
2018-12-02T18:00:48.346Z,11.92
2018-12-02T18:03:53.786Z,11.96
2018-12-02T18:06:59.274Z,11.89
2018-12-02T18:10:09.420Z,11.91
2018-12-02T18:13:14.844Z,11.90
2018-12-02T18:16:20.275Z,11.90
2018-12-02T18:19:25.720Z,11.86
2018-12-02T18:22:31.181Z,11.95
2018-12-02T18:25:36.614Z,11.91
2018-12-02T18:28:42.706Z,11.91
2018-12-02T18:31:48.108Z,11.83
2018-12-02T18:34:53.680Z,11.78
2018-12-02T18:38:02.992Z,11.82
2018-12-02T18:41:16.675Z,11.78
2018-12-02T18:44:22.073Z,11.89
2018-12-02T18:47:27.560Z,11.92
2018-12-02T18:50:33.337Z,11.95
2018-12-02T18:53:38.869Z,11.96
2018-12-02T18:56:44.609Z,12.01
2018-12-02T18:59:49.976Z,11.99
2018-12-02T19:02:57.887Z,11.94
2018-12-02T19:06:03.398Z,12.07
2018-12-02T19:09:12.073Z,12.08
2018-12-02T19:12:17.523Z,12.11
2018-12-02T19:15:23.377Z,12.11
2018-12-02T19:18:29.192Z,12.11
2018-12-02T19:21:34.696Z,12.13
2018-12-02T19:24:40.232Z,12.12
2018-12-02T19:27:45.688Z,12.00
2018-12-02T19:30:51.087Z,12.06
2018-12-02T19:33:58.485Z,12.02
2018-12-02T19:37:07.404Z,11.99
2018-12-02T19:40:16.724Z,11.98
2018-12-02T19:43:22.426Z,12.03
2018-12-02T19:46:27.876Z,12.05
2018-12-02T19:49:33.245Z,12.03
2018-12-02T19:52:38.884Z,12.00
2018-12-02T19:55:44.327Z,12.03
2018-12-02T19:58:49.776Z,12.05
2018-12-02T20:01:55.653Z,12.00
2018-12-02T20:05:01.061Z,11.96
2018-12-02T20:08:07.665Z,11.99
2018-12-02T20:11:13.152Z,12.00
2018-12-02T20:14:18.555Z,12.09
2018-12-02T20:17:23.947Z,11.98
2018-12-02T20:20:35.676Z,12.02
2018-12-02T20:23:46.423Z,12.08
2018-12-02T20:26:51.800Z,12.08
2018-12-02T20:29:57.294Z,12.06
2018-12-02T20:33:02.745Z,12.00
2018-12-02T20:36:09.102Z,12.00
2018-12-02T20:39:14.612Z,12.01
2018-12-02T20:42:20.084Z,11.94
2018-12-02T20:45:25.444Z,11.89
2018-12-02T20:48:30.906Z,11.92
2018-12-02T20:51:36.328Z,11.98
2018-12-02T20:54:41.785Z,11.93
2018-12-02T20:57:47.864Z,11.94
2018-12-02T21:00:53.256Z,11.93
2018-12-02T21:03:59.647Z,11.90
2018-12-02T21:07:06.163Z,11.97
2018-12-02T21:10:12.895Z,11.99
2018-12-02T21:13:18.283Z,11.99
2018-12-02T21:16:25.865Z,11.99
2018-12-02T21:19:31.256Z,11.98
2018-12-02T21:22:36.761Z,12.01
2018-12-02T21:25:42.306Z,12.07
2018-12-02T21:28:47.696Z,12.11
2018-12-02T21:31:53.160Z,12.08
2018-12-02T21:34:58.678Z,12.06
2018-12-02T21:38:04.048Z,12.07
2018-12-02T21:41:09.528Z,12.13
2018-12-02T21:44:15.000Z,12.15
2018-12-02T21:47:21.361Z,12.06
2018-12-02T21:50:30.590Z,12.10
2018-12-02T21:53:36.056Z,12.14
2018-12-02T21:56:41.491Z,12.19
2018-12-02T21:59:46.865Z,12.14
2018-12-02T22:02:53.896Z,12.16
2018-12-02T22:05:59.268Z,12.20
2018-12-02T22:09:06.893Z,12.19
2018-12-02T22:12:12.436Z,12.19
2018-12-02T22:15:17.800Z,12.20
2018-12-02T22:18:23.180Z,12.21
2018-12-02T22:21:28.617Z,12.19
2018-12-02T22:24:34.133Z,12.19
2018-12-02T22:27:39.600Z,12.20
2018-12-02T22:30:45.189Z,12.17
2018-12-02T22:33:50.511Z,12.26
2018-12-02T22:36:59.835Z,12.24
2018-12-02T22:40:13.572Z,12.28
2018-12-02T22:43:19.022Z,12.18
2018-12-02T22:46:24.888Z,12.16
2018-12-02T22:49:30.320Z,12.15
2018-12-02T22:52:35.867Z,12.17
2018-12-02T22:55:41.261Z,12.22
2018-12-02T22:58:46.660Z,12.22
2018-12-02T23:01:57.332Z,12.25
2018-12-02T23:05:02.783Z,12.33
2018-12-02T23:08:08.931Z,12.33
2018-12-02T23:11:14.401Z,12.31
2018-12-02T23:14:19.844Z,12.28
2018-12-02T23:17:25.273Z,12.26
2018-12-02T23:20:30.764Z,12.23
2018-12-02T23:23:36.282Z,12.26
2018-12-02T23:26:41.758Z,12.24
2018-12-02T23:29:47.616Z,12.21
2018-12-02T23:32:53.556Z,12.25
2018-12-02T23:35:59.029Z,12.29
2018-12-02T23:39:04.803Z,12.31
2018-12-02T23:42:10.337Z,12.32
2018-12-02T23:45:17.236Z,12.31
2018-12-02T23:48:22.624Z,12.32
2018-12-02T23:51:28.117Z,12.25
2018-12-02T23:54:33.517Z,12.29
2018-12-02T23:57:39.030Z,12.31
